Time;durP1;ratioP1;P1;durP2;ratioP2;P2;SDS_P1;SDS_P2;PMS_P1;PMS_P2;Temp;Humidity;BMP_temperature;BMP_pressure;BME280_temperature;BME280_humidity;BME280_pressure;Samples;Min_cycle;Max_cycle;Signal;HPM_P1;HPM_P2
2022/12/31 00:00:38;;;;;;;0.70;0.70;;;;;;;9.88;100.00;97805.09;4190981;28;20101;-77
2022/12/31 00:02:39;;;;;;;0.82;0.77;;;;;;;9.83;100.00;97797.16;4190224;28;20036;-78
2022/12/31 00:04:39;;;;;;;0.60;0.50;;;;;;;9.90;100.00;97805.47;4190205;28;20052;-78
2022/12/31 00:06:39;;;;;;;0.60;0.60;;;;;;;9.89;100.00;97806.66;4190936;28;20039;-77
2022/12/31 00:08:40;;;;;;;0.50;0.50;;;;;;;9.93;100.00;97807.50;4189320;28;20090;-77
2022/12/31 00:10:40;;;;;;;0.50;0.50;;;;;;;9.93;100.00;97809.44;4190744;28;20170;-77
2022/12/31 00:12:40;;;;;;;0.55;0.50;;;;;;;9.97;100.00;97802.75;4188636;28;20486;-77
2022/12/31 00:14:41;;;;;;;0.50;0.50;;;;;;;10.01;100.00;97805.50;4190659;28;20036;-77
2022/12/31 00:16:41;;;;;;;1.13;0.60;;;;;;;10.11;100.00;97808.31;4193587;28;20584;-77
2022/12/31 00:18:44;;;;;;;0.60;0.60;;;;;;;10.29;100.00;97811.16;4192196;28;20503;-78
2022/12/31 00:20:44;;;;;;;0.60;0.60;;;;;;;10.25;100.00;97812.31;4191039;28;20091;-78
2022/12/31 00:22:44;;;;;;;0.70;0.50;;;;;;;10.21;100.00;97817.03;4189806;28;20048;-77
2022/12/31 00:24:44;;;;;;;0.60;0.60;;;;;;;10.16;100.00;97811.88;4190910;28;20040;-77
2022/12/31 00:26:45;;;;;;;0.63;0.60;;;;;;;10.19;100.00;97824.94;4190557;28;20040;-77
2022/12/31 00:28:47;;;;;;;0.60;0.60;;;;;;;10.27;100.00;97832.09;4190599;28;20530;-77
2022/12/31 00:30:47;;;;;;;0.52;0.50;;;;;;;10.19;100.00;97825.72;4190597;28;20511;-78
2022/12/31 00:32:47;;;;;;;0.63;0.63;;;;;;;10.17;100.00;97830.03;4189599;28;20152;-78
2022/12/31 00:34:48;;;;;;;0.73;0.73;;;;;;;10.11;100.00;97832.41;4190119;28;20051;-78
2022/12/31 00:36:48;;;;;;;0.63;0.63;;;;;;;9.99;100.00;97830.78;4188853;28;20048;-77
2022/12/31 00:38:50;;;;;;;0.60;0.60;;;;;;;9.92;100.00;97839.03;4189540;28;20167;-78
2022/12/31 00:40:51;;;;;;;1.23;0.80;;;;;;;9.81;100.00;97833.47;4204164;28;20036;-78
2022/12/31 00:42:51;;;;;;;0.70;0.70;;;;;;;9.77;100.00;97832.69;4207088;28;20168;-78
2022/12/31 00:44:51;;;;;;;0.65;0.65;;;;;;;9.82;100.00;97845.31;4206265;28;20070;-78
2022/12/31 00:46:52;;;;;;;1.08;0.85;;;;;;;9.76;100.00;97836.63;4207654;28;20147;-78
2022/12/31 00:48:52;;;;;;;0.60;0.60;;;;;;;9.81;100.00;97839.00;4206304;28;20070;-77
2022/12/31 00:50:54;;;;;;;0.60;0.60;;;;;;;9.88;100.00;97840.22;4206613;28;20499;-78
2022/12/31 00:52:54;;;;;;;0.88;0.73;;;;;;;9.95;100.00;97840.25;4207052;28;20067;-78
2022/12/31 00:54:56;;;;;;;0.50;0.50;;;;;;;10.01;100.00;97842.25;4206302;28;20064;-78
2022/12/31 00:56:57;;;;;;;0.60;0.60;;;;;;;10.14;100.00;97845.44;4207656;28;20055;-78
2022/12/31 00:58:59;;;;;;;0.80;0.70;;;;;;;10.20;100.00;97843.09;4206412;28;20048;-77
2022/12/31 01:01:26;;;;;;;1.00;0.90;;;;;;;10.20;100.00;97843.09;4204924;28;20503;-78
2022/12/31 01:03:27;;;;;;;1.00;0.77;;;;;;;10.28;100.00;97842.75;4206665;28;20056;-77
2022/12/31 01:05:29;;;;;;;1.27;1.05;;;;;;;10.34;100.00;97851.44;4207639;28;20416;-77
2022/12/31 01:07:30;;;;;;;1.10;0.88;;;;;;;10.28;100.00;97847.50;4207505;28;20062;-78
2022/12/31 01:09:30;;;;;;;0.77;0.60;;;;;;;10.38;100.00;97841.19;4199557;28;20476;-78
2022/12/31 01:11:30;;;;;;;0.52;0.52;;;;;;;10.40;100.00;97858.97;4199975;28;20539;-78
2022/12/31 01:13:31;;;;;;;0.70;0.65;;;;;;;10.44;100.00;97864.53;4206065;28;20476;-78
2022/12/31 01:15:34;;;;;;;0.73;0.70;;;;;;;10.44;100.00;97855.44;4205588;28;20039;-78
2022/12/31 01:17:34;;;;;;;0.60;0.60;;;;;;;10.43;100.00;97864.91;4207022;28;20047;-78
2022/12/31 01:19:34;;;;;;;0.70;0.70;;;;;;;10.45;100.00;97865.31;4206985;28;20048;-78
2022/12/31 01:21:37;;;;;;;1.20;0.70;;;;;;;10.41;100.00;97841.19;4205052;28;20158;-77
2022/12/31 01:23:38;;;;;;;0.68;0.68;;;;;;;10.44;100.00;97847.13;4206350;28;20484;-77
2022/12/31 01:25:40;;;;;;;0.60;0.60;;;;;;;10.53;100.00;97844.78;4204649;28;20118;-77
2022/12/31 01:27:41;;;;;;;0.60;0.60;;;;;;;10.55;100.00;97843.19;4200531;28;20102;-78
2022/12/31 01:29:41;;;;;;;0.80;0.80;;;;;;;10.52;100.00;97838.47;4202919;28;20044;-78
2022/12/31 01:31:41;;;;;;;0.73;0.70;;;;;;;10.52;100.00;97846.75;4206095;28;20122;-77
2022/12/31 01:33:42;;;;;;;0.65;0.65;;;;;;;10.49;100.00;97850.28;4205654;28;20048;-78
2022/12/31 01:35:42;;;;;;;0.75;0.75;;;;;;;10.46;100.00;97840.03;4206173;28;20055;-77
2022/12/31 01:37:43;;;;;;;0.73;0.70;;;;;;;10.47;100.00;97858.19;4190196;28;20055;-77
2022/12/31 01:39:43;;;;;;;0.65;0.65;;;;;;;10.39;100.00;97851.06;4190909;28;20227;-77
2022/12/31 01:41:45;;;;;;;1.00;0.90;;;;;;;10.55;100.00;97843.19;4206685;28;20541;-77
2022/12/31 01:44:21;;;;;;;0.70;0.70;;;;;;;10.73;100.00;97848.75;4206257;28;20059;-78
2022/12/31 01:46:32;;;;;;;1.02;0.93;;;;;;;10.83;100.00;97838.84;4206513;28;20080;-78
2022/12/31 01:48:32;;;;;;;1.45;1.02;;;;;;;10.95;100.00;97863.38;4203924;28;20094;-78
2022/12/31 01:50:36;;;;;;;1.00;0.90;;;;;;;11.02;100.00;97868.13;4195218;28;20052;-78
2022/12/31 01:52:41;;;;;;;1.08;0.98;;;;;;;10.95;100.00;97853.09;4189586;28;20066;-78
2022/12/31 01:54:46;;;;;;;1.10;1.00;;;;;;;11.00;100.00;97851.09;4188567;28;20041;-77
2022/12/31 01:56:49;;;;;;;1.25;1.00;;;;;;;11.05;100.00;97851.50;4197685;28;20123;-77
2022/12/31 01:58:53;;;;;;;2.58;1.23;;;;;;;11.01;100.00;97853.50;4196183;28;20048;-78
2022/12/31 02:00:56;;;;;;;2.30;1.00;;;;;;;10.90;100.00;97839.66;4204868;28;20408;-78
2022/12/31 02:02:56;;;;;;;2.38;1.00;;;;;;;10.98;100.00;97863.38;4206321;28;20480;-78
2022/12/31 02:05:01;;;;;;;0.85;0.85;;;;;;;11.04;100.00;97857.44;4207054;28;20051;-78
2022/12/31 02:07:05;;;;;;;0.85;0.80;;;;;;;11.02;100.00;97860.63;4206413;28;20449;-78
2022/12/31 02:09:06;;;;;;;1.00;0.90;;;;;;;11.05;100.00;97853.50;4206696;28;20379;-77
2022/12/31 02:11:23;;;;;;;0.93;0.85;;;;;;;10.98;100.00;97857.84;4204470;28;20071;-78
2022/12/31 02:13:24;;;;;;;2.30;1.00;;;;;;;11.03;100.00;97842.03;4205901;28;20503;-78
2022/12/31 02:15:42;;;;;;;0.85;0.85;;;;;;;11.09;100.00;97838.47;4201142;28;20242;-77
2022/12/31 02:17:52;;;;;;;1.55;0.90;;;;;;;11.17;100.00;97851.13;4190109;28;20460;-78
2022/12/31 02:20:17;;;;;;;1.20;0.70;;;;;;;11.29;100.00;97851.91;4188364;28;20535;-78
2022/12/31 02:22:44;;;;;;;2.03;1.00;;;;;;;11.29;100.00;97849.13;4189793;28;20120;-78
2022/12/31 02:24:47;;;;;;;1.00;0.80;;;;;;;11.32;100.00;97851.88;4195697;28;20080;-78
2022/12/31 02:27:00;;;;;;;1.33;0.90;;;;;;;11.38;100.00;97855.03;4206075;28;20427;-78
2022/12/31 02:29:01;;;;;;;0.70;0.70;;;;;;;11.43;100.00;97836.06;4208784;28;20449;-78
2022/12/31 02:31:10;;;;;;;1.13;0.85;;;;;;;11.44;100.00;97837.63;4209172;28;20056;-78
2022/12/31 02:33:39;;;;;;;0.85;0.77;;;;;;;11.42;100.00;97828.94;4207545;28;20410;-78
2022/12/31 02:35:48;;;;;;;0.68;0.68;;;;;;;11.41;100.00;97830.09;4200215;28;20048;-78
2022/12/31 02:37:52;;;;;;;0.82;0.70;;;;;;;11.37;100.00;97814.69;4208910;28;20100;-78
2022/12/31 02:39:54;;;;;;;1.33;0.70;;;;;;;11.37;100.00;97825.78;4210219;28;20060;-78
2022/12/31 02:41:54;;;;;;;0.60;0.60;;;;;;;11.42;100.00;97833.66;4208626;28;20052;-79
2022/12/31 02:43:54;;;;;;;0.63;0.63;;;;;;;11.41;100.00;97832.06;4208643;28;20076;-78
2022/12/31 02:46:00;;;;;;;0.95;0.70;;;;;;;11.50;100.00;97838.00;4209556;28;20059;-78
2022/12/31 02:48:11;;;;;;;0.60;0.60;;;;;;;11.48;100.00;97838.38;4208939;28;20136;-77
2022/12/31 02:51:02;;;;;;;0.65;0.65;;;;;;;11.46;100.00;97846.31;4208515;28;20405;-78
2022/12/31 02:53:25;;;;;;;0.50;0.50;;;;;;;11.40;100.00;97831.28;4194216;28;20052;-78
2022/12/31 02:55:31;;;;;;;0.60;0.60;;;;;;;11.38;100.00;97832.88;4207291;28;20070;-78
2022/12/31 02:57:54;;;;;;;0.80;0.80;;;;;;;11.26;100.00;97831.34;4204328;28;20377;-78
2022/12/31 03:02:22;;;;;;;0.70;0.60;;;;;;;11.41;100.00;97824.56;4199235;28;20094;-78
2022/12/31 03:04:31;;;;;;;0.60;0.60;;;;;;;11.39;100.00;97821.41;4203643;28;20048;-78
2022/12/31 03:06:31;;;;;;;0.70;0.70;;;;;;;11.35;100.00;97828.94;4200979;28;20297;-78
2022/12/31 03:09:11;;;;;;;1.25;0.70;;;;;;;11.42;100.00;97828.13;4209239;28;20040;-78
2022/12/31 03:10:52;;;;;;;0.82;0.60;;;;;;;11.48;100.00;97821.78;4201654;28;20610;-78
2022/12/31 03:12:52;;;;;;;0.50;0.50;;;;;;;11.50;100.00;97808.34;4198839;28;20048;-78
2022/12/31 03:14:53;;;;;;;0.50;0.50;;;;;;;11.57;100.00;97810.25;4207829;28;20052;-78
2022/12/31 03:16:53;;;;;;;0.50;0.50;;;;;;;11.42;100.00;97806.78;4205125;28;20175;-78
2022/12/31 03:23:41;;;;;;;0.95;0.45;;;;;;;11.35;100.00;97814.31;4207696;28;20047;-78
2022/12/31 03:25:42;;;;;;;0.60;0.60;;;;;;;11.44;100.00;97818.22;4208393;28;20044;-78
2022/12/31 03:27:44;;;;;;;0.70;0.65;;;;;;;11.50;100.00;97811.09;4208896;28;20470;-78
2022/12/31 03:29:44;;;;;;;0.40;0.40;;;;;;;11.48;100.00;97807.13;4208838;28;20036;-78
2022/12/31 03:31:44;;;;;;;0.57;0.50;;;;;;;11.50;100.00;97813.88;4206135;28;20557;-78
2022/12/31 03:33:45;;;;;;;0.68;0.45;;;;;;;11.56;100.00;97819.78;4193198;28;20105;-78
2022/12/31 03:35:46;;;;;;;0.38;0.38;;;;;;;11.67;100.00;97826.09;4192168;28;20041;-78
2022/12/31 03:37:48;;;;;;;1.13;0.40;;;;;;;11.65;100.00;97831.22;4191826;28;20041;-78
2022/12/31 03:39:48;;;;;;;0.40;0.40;;;;;;;11.73;100.00;97829.22;4191508;28;20422;-78
2022/12/31 03:41:49;;;;;;;0.60;0.40;;;;;;;11.80;100.00;97826.44;4194003;28;20282;-78
2022/12/31 03:43:49;;;;;;;0.40;0.40;;;;;;;11.91;100.00;97823.63;4208354;28;20044;-78
2022/12/31 03:45:52;;;;;;;0.30;0.30;;;;;;;12.04;100.00;97824.78;4208343;28;20077;-78
2022/12/31 03:47:52;;;;;;;0.35;0.35;;;;;;;12.05;100.00;97824.38;4192196;28;20500;-78
2022/12/31 03:49:52;;;;;;;0.38;0.38;;;;;;;12.14;100.00;97835.00;4191482;28;20318;-78
2022/12/31 03:51:53;;;;;;;0.70;0.70;;;;;;;12.10;100.00;97823.16;4199240;28;20075;-78
2022/12/31 03:53:53;;;;;;;0.40;0.40;;;;;;;12.07;100.00;97841.38;4206157;28;20130;-78
2022/12/31 03:55:54;;;;;;;0.40;0.40;;;;;;;12.04;100.00;97825.56;4207150;28;20032;-78
2022/12/31 03:57:54;;;;;;;0.60;0.43;;;;;;;12.05;100.00;97831.88;4207006;28;20056;-78
2022/12/31 03:59:55;;;;;;;0.50;0.50;;;;;;;12.05;100.00;97838.22;4207417;28;20040;-78
2022/12/31 04:01:55;;;;;;;0.52;0.50;;;;;;;12.07;100.00;97835.03;4207539;28;20047;-78
2022/12/31 04:03:55;;;;;;;0.50;0.50;;;;;;;12.12;100.00;97834.63;4206549;28;20046;-78
2022/12/31 04:05:56;;;;;;;0.50;0.50;;;;;;;12.20;100.00;97843.72;4208341;28;20047;-78
2022/12/31 04:07:56;;;;;;;0.55;0.55;;;;;;;12.24;100.00;97823.06;4208420;28;20087;-78
2022/12/31 04:09:57;;;;;;;0.50;0.50;;;;;;;12.23;100.00;97813.16;4207153;28;20126;-79
2022/12/31 04:11:57;;;;;;;1.35;0.47;;;;;;;12.24;100.00;97819.50;4191257;28;20045;-78
2022/12/31 04:13:58;;;;;;;0.57;0.50;;;;;;;12.20;100.00;97819.53;4202515;28;20051;-78
2022/12/31 04:15:58;;;;;;;0.85;0.60;;;;;;;12.21;100.00;97823.88;4206208;28;20044;-78
2022/12/31 04:17:58;;;;;;;0.55;0.55;;;;;;;12.22;100.00;97817.16;4208215;28;20044;-78
2022/12/31 04:19:59;;;;;;;0.50;0.50;;;;;;;12.24;100.00;97817.53;4207137;28;20032;-78
2022/12/31 04:21:59;;;;;;;0.50;0.50;;;;;;;12.37;100.00;97812.31;4193399;28;20051;-78
2022/12/31 04:24:00;;;;;;;2.67;0.60;;;;;;;12.31;100.00;97813.91;4207110;28;20036;-78
2022/12/31 04:26:00;;;;;;;0.50;0.50;;;;;;;12.32;100.00;97821.84;4206276;28;20492;-78
2022/12/31 04:28:01;;;;;;;0.50;0.50;;;;;;;12.37;100.00;97828.94;4206813;28;20043;-77
2022/12/31 04:30:01;;;;;;;0.63;0.63;;;;;;;12.42;100.00;97820.22;4207670;28;20024;-78
2022/12/31 04:32:03;;;;;;;0.50;0.50;;;;;;;12.45;100.00;97822.16;4207110;28;20036;-77
2022/12/31 04:34:03;;;;;;;1.47;0.63;;;;;;;12.51;100.00;97817.78;4199096;28;20033;-78
2022/12/31 04:36:06;;;;;;;0.52;0.52;;;;;;;12.53;100.00;97825.69;4207848;28;20035;-78
2022/12/31 04:38:06;;;;;;;1.48;0.60;;;;;;;12.57;100.00;97831.97;4195698;28;20058;-79
2022/12/31 04:40:07;;;;;;;0.60;0.60;;;;;;;12.55;100.00;97810.19;4206842;28;20036;-78
2022/12/31 04:42:07;;;;;;;1.73;0.60;;;;;;;12.56;100.00;97822.09;4204930;28;20111;-78
2022/12/31 04:44:08;;;;;;;2.53;0.63;;;;;;;12.53;100.00;97806.25;4202259;28;20046;-78
2022/12/31 04:46:08;;;;;;;0.70;0.60;;;;;;;12.45;100.00;97810.28;4196955;28;20039;-78
2022/12/31 04:48:09;;;;;;;0.98;0.80;;;;;;;12.45;100.00;97813.84;4207783;28;20038;-77
2022/12/31 04:50:09;;;;;;;0.90;0.60;;;;;;;12.54;100.00;97810.59;4205646;28;20436;-78
2022/12/31 04:52:09;;;;;;;0.68;0.60;;;;;;;12.58;100.00;97803.84;4191934;28;20468;-78
2022/12/31 04:54:10;;;;;;;0.60;0.60;;;;;;;12.63;100.00;97811.72;4204857;28;20035;-78
2022/12/31 04:56:11;;;;;;;0.60;0.60;;;;;;;12.60;100.00;97815.31;4206351;28;20024;-78
2022/12/31 04:58:11;;;;;;;0.77;0.60;;;;;;;12.62;100.00;97815.69;4206214;28;20028;-78
2022/12/31 05:00:12;;;;;;;3.50;1.40;;;;;;;12.71;100.00;97831.09;4205544;28;20024;-78
2022/12/31 05:02:12;;;;;;;1.20;0.70;;;;;;;12.83;100.00;97823.09;4206582;28;20032;-78
2022/12/31 05:04:13;;;;;;;0.70;0.55;;;;;;;12.88;99.97;97814.31;4206776;28;20024;-78
2022/12/31 05:06:20;;;;;;;1.60;0.60;;;;;;;12.85;100.00;97822.69;4206138;28;20097;-78
2022/12/31 05:08:20;;;;;;;0.50;0.50;;;;;;;12.92;100.00;97822.63;4207014;28;20028;-78
2022/12/31 05:10:20;;;;;;;1.20;0.93;;;;;;;12.90;99.88;97819.44;4206534;28;20420;-78
2022/12/31 05:12:21;;;;;;;1.13;0.70;;;;;;;12.85;100.00;97808.78;4206053;28;20052;-78
2022/12/31 05:14:21;;;;;;;0.60;0.60;;;;;;;12.81;100.00;97822.69;4207200;28;20362;-78
2022/12/31 05:16:22;;;;;;;0.50;0.50;;;;;;;12.78;100.00;97825.50;4200506;28;20498;-78
2022/12/31 05:18:23;;;;;;;0.95;0.70;;;;;;;12.80;100.00;97823.88;4206992;28;20059;-79
2022/12/31 05:20:23;;;;;;;0.73;0.65;;;;;;;12.74;100.00;97825.50;4205053;28;20412;-78
2022/12/31 05:22:29;;;;;;;0.50;0.50;;;;;;;12.69;100.00;97831.50;4205768;28;20044;-78
2022/12/31 05:24:30;;;;;;;0.82;0.68;;;;;;;12.71;100.00;97828.31;4205593;28;20036;-78
2022/12/31 05:26:30;;;;;;;0.70;0.70;;;;;;;12.69;100.00;97839.84;4206472;28;20047;-78
2022/12/31 05:28:31;;;;;;;0.60;0.60;;;;;;;12.71;100.00;97823.56;4201908;28;20128;-78
2022/12/31 05:30:31;;;;;;;0.77;0.60;;;;;;;12.71;100.00;97823.56;4192689;28;20037;-78
2022/12/31 05:32:32;;;;;;;1.17;0.70;;;;;;;12.81;100.00;97827.44;4205716;28;20051;-78
2022/12/31 05:34:32;;;;;;;0.70;0.70;;;;;;;12.80;100.00;97810.00;4206886;28;20036;-78
2022/12/31 05:36:33;;;;;;;0.82;0.70;;;;;;;12.82;100.00;97815.16;4207012;28;20048;-78
2022/12/31 05:38:33;;;;;;;1.20;0.70;;;;;;;12.82;100.00;97829.81;4205703;28;20117;-78
2022/12/31 05:40:33;;;;;;;1.33;0.75;;;;;;;12.84;100.00;97830.22;4204214;28;20043;-78
2022/12/31 05:42:34;;;;;;;0.55;0.52;;;;;;;12.88;100.00;97824.63;4204512;28;20044;-78
2022/12/31 05:44:34;;;;;;;0.77;0.70;;;;;;;12.87;100.00;97815.50;4206662;28;20040;-78
2022/12/31 05:46:34;;;;;;;1.25;0.90;;;;;;;12.90;99.96;97820.22;4205159;28;20129;-78
2022/12/31 05:48:35;;;;;;;1.13;0.93;;;;;;;12.93;99.50;97822.22;4207253;28;20417;-78
2022/12/31 05:50:35;;;;;;;1.27;0.75;;;;;;;13.00;99.49;97826.13;4205845;28;20403;-78
2022/12/31 05:52:35;;;;;;;0.70;0.70;;;;;;;13.00;99.08;97824.13;4196207;28;20459;-78
2022/12/31 05:54:36;;;;;;;0.60;0.60;;;;;;;13.18;97.16;97810.88;4205484;28;20528;-78
2022/12/31 05:56:36;;;;;;;0.73;0.60;;;;;;;13.32;96.22;97803.63;4205581;28;20043;-78
2022/12/31 05:58:37;;;;;;;0.73;0.60;;;;;;;13.27;96.43;97827.09;4200135;28;20036;-78
2022/12/31 06:00:37;;;;;;;1.52;0.63;;;;;;;13.30;96.12;97822.69;4204621;28;20131;-78
2022/12/31 06:02:38;;;;;;;1.83;0.90;;;;;;;13.41;95.58;97815.84;4201690;28;20044;-78
2022/12/31 06:04:38;;;;;;;0.60;0.60;;;;;;;13.44;95.53;97815.00;4205670;28;20045;-78
2022/12/31 06:06:38;;;;;;;0.60;0.60;;;;;;;13.55;94.98;97826.00;4206577;28;20480;-78
2022/12/31 06:08:39;;;;;;;0.73;0.70;;;;;;;13.56;95.48;97849.03;4205383;28;20119;-78
2022/12/31 06:10:39;;;;;;;1.65;0.57;;;;;;;13.60;94.94;97828.34;4206146;28;20044;-78
2022/12/31 06:12:39;;;;;;;1.50;0.70;;;;;;;13.58;95.09;97827.19;4197288;28;20055;-78
2022/12/31 06:14:40;;;;;;;1.00;0.60;;;;;;;13.54;95.50;97849.44;4215704;28;20058;-78
2022/12/31 06:16:41;;;;;;;1.80;0.60;;;;;;;13.44;95.60;97845.56;4206375;28;20438;-78
2022/12/31 06:18:41;;;;;;;0.82;0.60;;;;;;;13.56;95.78;97865.69;4209174;28;20043;-78
2022/12/31 06:20:41;;;;;;;1.05;0.60;;;;;;;13.55;95.75;97862.13;4205429;28;20127;-78
2022/12/31 06:22:42;;;;;;;2.08;0.80;;;;;;;13.52;95.83;97848.28;4205739;28;20040;-78
2022/12/31 06:24:42;;;;;;;1.83;0.65;;;;;;;13.54;95.32;97860.56;4206779;28;20040;-78
2022/12/31 06:26:43;;;;;;;0.80;0.70;;;;;;;13.55;95.16;97858.56;4206649;28;20041;-78
2022/12/31 06:28:43;;;;;;;1.55;0.80;;;;;;;13.51;95.50;97850.28;4206603;28;20137;-78
2022/12/31 06:30:43;;;;;;;1.75;0.70;;;;;;;13.56;95.26;97849.03;4204309;28;20040;-78
2022/12/31 06:32:44;;;;;;;0.95;0.80;;;;;;;13.55;95.07;97858.56;4203735;28;20055;-78
2022/12/31 06:34:44;;;;;;;1.90;0.70;;;;;;;13.59;94.48;97876.00;4204668;28;20538;-79
2022/12/31 06:36:44;;;;;;;1.33;0.88;;;;;;;13.54;95.24;97857.00;4199313;28;20040;-78
2022/12/31 06:38:45;;;;;;;0.60;0.60;;;;;;;13.61;94.98;97870.81;4190090;28;20448;-78
2022/12/31 06:40:45;;;;;;;0.73;0.70;;;;;;;13.56;94.94;97862.91;4196611;28;20339;-79
2022/12/31 06:42:45;;;;;;;1.65;0.80;;;;;;;13.61;94.77;97882.72;4205365;28;20123;-78
2022/12/31 06:44:46;;;;;;;1.02;0.70;;;;;;;13.69;94.47;97862.00;4205199;28;20402;-78
2022/12/31 06:46:46;;;;;;;2.65;0.82;;;;;;;13.64;94.81;97870.75;4199620;28;20121;-79
2022/12/31 06:48:47;;;;;;;2.45;0.60;;;;;;;13.67;94.75;97886.63;4206253;28;20040;-78
2022/12/31 06:50:47;;;;;;;1.42;0.80;;;;;;;13.76;93.77;97880.59;4205791;28;20214;-78
2022/12/31 06:52:47;;;;;;;1.10;0.70;;;;;;;13.82;94.03;97878.94;4205479;28;20457;-78
2022/12/31 06:54:48;;;;;;;1.75;0.80;;;;;;;13.77;94.36;97884.94;4197638;28;20506;-79
2022/12/31 06:56:48;;;;;;;0.98;0.75;;;;;;;13.73;94.23;97887.75;4195756;28;20057;-79
2022/12/31 06:58:50;;;;;;;0.93;0.70;;;;;;;13.85;92.90;97889.22;4212829;28;20041;-78
2022/12/31 07:01:01;;;;;;;0.90;0.80;;;;;;;13.87;93.08;97875.69;4200604;28;20098;-78
2022/12/31 07:03:24;;;;;;;0.85;0.80;;;;;;;13.89;93.39;97892.75;4187164;28;20067;-79
2022/12/31 07:06:12;;;;;;;3.20;0.90;;;;;;;13.91;93.03;97875.66;4196969;28;20051;-79
2022/12/31 07:08:31;;;;;;;1.85;0.93;;;;;;;13.95;92.76;97899.44;4173513;28;20052;-78
2022/12/31 07:10:52;;;;;;;1.38;0.80;;;;;;;13.95;92.85;97910.56;4204521;28;20519;-78
2022/12/31 07:13:13;;;;;;;2.22;1.05;;;;;;;13.89;92.99;97906.66;4189018;28;20042;-78
2022/12/31 07:15:24;;;;;;;1.00;0.75;;;;;;;13.93;92.15;97901.84;4196847;28;20129;-78
2022/12/31 07:17:37;;;;;;;1.50;1.00;;;;;;;13.97;92.53;97907.34;4207326;28;20046;-79
2022/12/31 07:20:01;;;;;;;1.50;1.30;;;;;;;13.97;92.14;97908.16;4207736;28;20066;-78
2022/12/31 07:22:02;;;;;;;1.27;0.82;;;;;;;13.92;91.65;97883.59;4201219;28;20770;-77
2022/12/31 07:24:06;;;;;;;1.02;0.75;;;;;;;13.72;93.17;97894.50;4194238;28;20029;-78
2022/12/31 07:26:12;;;;;;;1.48;1.00;;;;;;;13.68;93.21;97904.91;4145798;28;20035;-79
2022/12/31 07:28:42;;;;;;;2.58;0.80;;;;;;;13.81;92.81;97901.56;4206807;28;20430;-78
2022/12/31 07:31:01;;;;;;;2.15;1.20;;;;;;;13.85;92.56;97919.81;4198248;28;20105;-78
2022/12/31 07:33:26;;;;;;;1.70;0.88;;;;;;;13.93;92.10;97920.53;4189863;27;20079;-78
2022/12/31 07:35:51;;;;;;;1.85;1.00;;;;;;;13.98;92.15;97898.63;4203446;28;20052;-78
2022/12/31 07:38:12;;;;;;;1.15;0.95;;;;;;;13.91;92.34;97895.13;4208873;28;20381;-78
2022/12/31 07:40:19;;;;;;;1.05;0.70;;;;;;;13.95;91.90;97904.22;4207651;28;20066;-78
2022/12/31 07:42:55;;;;;;;1.13;0.90;;;;;;;13.98;92.22;97914.50;4207932;28;20112;-78
2022/12/31 07:45:16;;;;;;;1.67;0.85;;;;;;;14.03;91.62;97909.28;4207186;28;20039;-78
2022/12/31 07:47:27;;;;;;;1.73;0.90;;;;;;;14.04;91.46;97905.28;4212299;28;20042;-79
2022/12/31 07:49:29;;;;;;;1.98;0.90;;;;;;;14.08;91.45;97921.94;4205742;28;20389;-79
2022/12/31 07:51:30;;;;;;;0.75;0.73;;;;;;;13.98;91.69;97904.19;4202231;28;20047;-79
2022/12/31 07:53:31;;;;;;;0.70;0.60;;;;;;;14.02;91.56;97937.50;4209027;28;20114;-78
2022/12/31 07:55:33;;;;;;;1.15;0.93;;;;;;;14.05;91.16;97931.09;4200678;28;20110;-79
2022/12/31 07:57:52;;;;;;;1.83;1.25;;;;;;;14.15;90.61;97932.19;4191685;28;20566;-79
2022/12/31 08:00:07;;;;;;;1.58;0.95;;;;;;;14.28;90.10;97947.16;4191575;28;20546;-79
2022/12/31 08:02:44;;;;;;;2.28;1.10;;;;;;;14.26;90.45;97957.91;4194799;28;20040;-78
2022/12/31 08:05:14;;;;;;;1.35;0.95;;;;;;;14.19;90.68;97953.22;4198831;28;20071;-79
2022/12/31 08:07:28;;;;;;;1.63;0.90;;;;;;;14.13;91.22;97967.97;4196890;28;20468;-79
2022/12/31 08:09:45;;;;;;;2.15;1.20;;;;;;;14.17;90.79;97971.53;4191745;28;20044;-78
2022/12/31 08:11:55;;;;;;;1.42;0.90;;;;;;;14.21;90.74;97977.81;4196855;28;20047;-79
2022/12/31 08:13:59;;;;;;;3.30;1.10;;;;;;;14.27;90.79;97982.53;4207777;28;20116;-79
2022/12/31 08:16:01;;;;;;;2.78;0.95;;;;;;;14.32;90.47;97986.88;4206476;28;20070;-79
2022/12/31 08:18:01;;;;;;;2.08;0.90;;;;;;;14.37;89.81;97980.81;4207642;28;20144;-78
2022/12/31 08:20:03;;;;;;;2.42;0.80;;;;;;;14.47;89.38;97987.50;4207482;28;20067;-79
2022/12/31 08:22:33;;;;;;;4.43;1.17;;;;;;;14.54;89.14;97979.06;4199028;28;20055;-79
2022/12/31 08:25:06;;;;;;;5.07;1.13;;;;;;;14.56;89.46;97985.81;4202605;28;20055;-79
2022/12/31 08:27:31;;;;;;;2.85;0.75;;;;;;;14.59;88.99;98014.81;4203212;28;20519;-78
2022/12/31 08:29:38;;;;;;;2.90;1.10;;;;;;;14.54;89.45;97985.41;4202203;28;20095;-79
2022/12/31 08:31:52;;;;;;;2.60;1.48;;;;;;;14.56;89.18;97999.75;4204933;28;20522;-79
2022/12/31 08:34:19;;;;;;;3.50;1.50;;;;;;;14.56;89.52;97998.91;4194197;28;20102;-79
2022/12/31 08:36:31;;;;;;;3.00;1.15;;;;;;;14.53;89.56;97986.63;4190959;28;20048;-79
2022/12/31 08:38:50;;;;;;;1.70;1.10;;;;;;;14.55;89.19;97995.34;4191408;28;20040;-79
2022/12/31 08:41:08;;;;;;;1.85;1.60;;;;;;;14.59;88.88;97984.97;4200901;28;20060;-79
2022/12/31 08:43:15;;;;;;;1.65;1.08;;;;;;;14.63;88.73;97975.78;4205262;28;20052;-79
2022/12/31 08:45:31;;;;;;;3.33;1.20;;;;;;;14.63;88.74;97970.22;4202367;28;20047;-79
2022/12/31 08:47:57;;;;;;;3.08;1.50;;;;;;;14.55;89.21;97966.72;4199706;28;21120;-79
2022/12/31 08:49:57;;;;;;;2.75;1.20;;;;;;;14.58;89.31;97980.63;4200182;28;20391;-79
2022/12/31 08:51:59;;;;;;;1.73;1.00;;;;;;;14.56;88.65;97971.91;4200899;28;20043;-79
2022/12/31 08:53:59;;;;;;;2.35;1.40;;;;;;;14.59;88.76;97987.75;4198724;28;20040;-79
2022/12/31 08:56:06;;;;;;;2.78;1.10;;;;;;;14.64;88.46;97971.78;4196948;28;20097;-79
2022/12/31 08:58:28;;;;;;;1.35;0.90;;;;;;;14.71;88.08;97985.63;4195747;28;20515;-79
2022/12/31 09:00:30;;;;;;;2.90;1.17;;;;;;;14.72;87.76;97982.41;4202937;28;20350;-79
2022/12/31 09:03:08;;;;;;;2.22;0.98;;;;;;;14.68;88.62;97990.03;4199615;28;20043;-80
2022/12/31 09:05:23;;;;;;;3.58;1.08;;;;;;;14.76;87.68;97990.72;4197843;28;20830;-79
2022/12/31 09:07:56;;;;;;;2.88;1.00;;;;;;;14.82;86.96;97989.84;4200258;28;20040;-79
2022/12/31 09:10:16;;;;;;;2.03;0.90;;;;;;;14.84;87.07;97990.22;4199009;28;20692;-79
2022/12/31 09:12:40;;;;;;;3.03;1.10;;;;;;;14.89;86.51;97977.81;4202014;28;20495;-79
2022/12/31 09:14:48;;;;;;;2.83;1.20;;;;;;;14.91;86.42;97980.97;4200585;28;20040;-79
2022/12/31 09:17:07;;;;;;;1.33;1.00;;;;;;;14.85;86.88;97977.88;4201886;28;20086;-79
2022/12/31 09:19:09;;;;;;;1.90;1.20;;;;;;;14.92;85.97;97968.63;4202448;28;20106;-79
2022/12/31 09:21:12;;;;;;;1.38;1.02;;;;;;;14.92;86.40;97987.34;4202647;28;20040;-79
2022/12/31 09:23:13;;;;;;;3.83;1.02;;;;;;;14.98;85.78;97968.97;4200174;28;20040;-79
2022/12/31 09:25:17;;;;;;;2.17;1.45;;;;;;;14.95;86.40;97987.28;4196813;28;20097;-79
2022/12/31 09:27:38;;;;;;;2.50;1.38;;;;;;;15.06;85.49;97982.38;4201218;28;20036;-80
2022/12/31 09:29:51;;;;;;;3.97;0.90;;;;;;;15.03;85.87;97979.63;4198995;28;20085;-79
2022/12/31 09:32:13;;;;;;;2.00;1.15;;;;;;;15.08;85.22;97993.09;4201485;28;20135;-79
2022/12/31 09:34:25;;;;;;;1.58;0.85;;;;;;;15.14;85.10;97999.75;4199676;28;20094;-79
2022/12/31 09:36:43;;;;;;;2.70;0.90;;;;;;;15.13;84.59;98015.66;4198768;28;20213;-79
2022/12/31 09:38:46;;;;;;;2.17;1.20;;;;;;;15.19;84.80;98007.66;4201539;28;20306;-79
2022/12/31 09:41:15;;;;;;;1.50;1.33;;;;;;;15.21;84.30;97993.28;4202770;28;20525;-79
2022/12/31 09:43:56;;;;;;;4.18;0.90;;;;;;;15.10;84.74;97985.88;4192439;28;20057;-79
2022/12/31 09:46:27;;;;;;;1.95;1.20;;;;;;;15.15;84.17;97995.78;4202066;28;20044;-79
2022/12/31 09:48:46;;;;;;;1.50;1.02;;;;;;;15.14;84.25;97981.06;4200767;28;20100;-79
2022/12/31 09:50:48;;;;;;;1.33;1.05;;;;;;;15.09;84.36;97989.88;4201223;28;20040;-79
2022/12/31 09:52:54;;;;;;;3.63;0.80;;;;;;;15.12;83.98;97986.25;4200163;28;20434;-80
2022/12/31 09:55:15;;;;;;;1.65;0.80;;;;;;;15.21;84.17;98008.00;4084962;28;20056;-79
2022/12/31 09:57:40;;;;;;;1.65;1.08;;;;;;;15.22;83.68;97975.34;4200156;28;20063;-79